sensor_id;sensor_type;location;lat;lon;timestamp;P1;durP1;ratioP1;P2;durP2;ratioP2
68479;SDS011;55469;48.934;12.050;2022-11-15T00:00:52;7.35;;;4.90;;
68479;SDS011;55469;48.934;12.050;2022-11-15T00:03:22;7.90;;;5.70;;
68479;SDS011;55469;48.934;12.050;2022-11-15T00:05:50;7.65;;;5.25;;
68479;SDS011;55469;48.934;12.050;2022-11-15T00:08:16;6.90;;;5.10;;
68479;SDS011;55469;48.934;12.050;2022-11-15T00:10:42;7.65;;;5.22;;
68479;SDS011;55469;48.934;12.050;2022-11-15T00:13:19;6.70;;;4.97;;
68479;SDS011;55469;48.934;12.050;2022-11-15T00:15:44;7.47;;;5.40;;
68479;SDS011;55469;48.934;12.050;2022-11-15T00:18:13;7.30;;;5.20;;
68479;SDS011;55469;48.934;12.050;2022-11-15T00:20:40;7.38;;;5.22;;
68479;SDS011;55469;48.934;12.050;2022-11-15T00:23:06;8.07;;;5.20;;
68479;SDS011;55469;48.934;12.050;2022-11-15T00:25:32;7.78;;;5.45;;
68479;SDS011;55469;48.934;12.050;2022-11-15T00:27:59;7.05;;;5.22;;
68479;SDS011;55469;48.934;12.050;2022-11-15T00:30:25;7.53;;;5.47;;
68479;SDS011;55469;48.934;12.050;2022-11-15T00:32:52;6.70;;;5.07;;
68479;SDS011;55469;48.934;12.050;2022-11-15T00:35:18;7.40;;;5.28;;
68479;SDS011;55469;48.934;12.050;2022-11-15T00:37:44;6.80;;;5.38;;
68479;SDS011;55469;48.934;12.050;2022-11-15T00:40:11;6.80;;;5.22;;
68479;SDS011;55469;48.934;12.050;2022-11-15T00:42:40;6.65;;;5.00;;
68479;SDS011;55469;48.934;12.050;2022-11-15T00:45:06;7.95;;;5.35;;
68479;SDS011;55469;48.934;12.050;2022-11-15T00:47:33;8.43;;;5.50;;
68479;SDS011;55469;48.934;12.050;2022-11-15T00:49:59;6.85;;;5.43;;
68479;SDS011;55469;48.934;12.050;2022-11-15T00:52:24;7.45;;;5.25;;
68479;SDS011;55469;48.934;12.050;2022-11-15T00:54:50;7.50;;;4.93;;
68479;SDS011;55469;48.934;12.050;2022-11-15T00:57:16;8.23;;;5.43;;
68479;SDS011;55469;48.934;12.050;2022-11-15T00:59:41;7.80;;;5.22;;
68479;SDS011;55469;48.934;12.050;2022-11-15T01:02:07;7.32;;;5.53;;
68479;SDS011;55469;48.934;12.050;2022-11-15T01:04:33;6.50;;;5.18;;
68479;SDS011;55469;48.934;12.050;2022-11-15T01:06:58;6.82;;;5.35;;
68479;SDS011;55469;48.934;12.050;2022-11-15T01:09:24;7.53;;;5.13;;
68479;SDS011;55469;48.934;12.050;2022-11-15T01:11:50;6.88;;;5.10;;
68479;SDS011;55469;48.934;12.050;2022-11-15T01:14:15;6.93;;;5.10;;
68479;SDS011;55469;48.934;12.050;2022-11-15T01:16:41;7.45;;;5.35;;
68479;SDS011;55469;48.934;12.050;2022-11-15T01:19:07;7.13;;;5.38;;
68479;SDS011;55469;48.934;12.050;2022-11-15T01:21:33;6.40;;;5.18;;
68479;SDS011;55469;48.934;12.050;2022-11-15T01:23:58;9.75;;;5.63;;
68479;SDS011;55469;48.934;12.050;2022-11-15T01:26:24;6.10;;;5.20;;
68479;SDS011;55469;48.934;12.050;2022-11-15T01:28:51;7.28;;;5.03;;
68479;SDS011;55469;48.934;12.050;2022-11-15T01:31:18;7.63;;;5.63;;
68479;SDS011;55469;48.934;12.050;2022-11-15T01:33:46;7.15;;;5.18;;
68479;SDS011;55469;48.934;12.050;2022-11-15T01:36:14;6.88;;;5.35;;
68479;SDS011;55469;48.934;12.050;2022-11-15T01:38:46;7.47;;;5.28;;
68479;SDS011;55469;48.934;12.050;2022-11-15T01:41:18;8.20;;;5.43;;
68479;SDS011;55469;48.934;12.050;2022-11-15T01:43:49;7.35;;;5.20;;
68479;SDS011;55469;48.934;12.050;2022-11-15T01:48:46;7.03;;;5.40;;
68479;SDS011;55469;48.934;12.050;2022-11-15T01:51:13;7.07;;;5.30;;
68479;SDS011;55469;48.934;12.050;2022-11-15T01:53:43;7.70;;;5.13;;
68479;SDS011;55469;48.934;12.050;2022-11-15T01:56:21;6.57;;;4.90;;
68479;SDS011;55469;48.934;12.050;2022-11-15T01:58:51;6.90;;;5.25;;
68479;SDS011;55469;48.934;12.050;2022-11-15T02:01:21;7.47;;;5.00;;
68479;SDS011;55469;48.934;12.050;2022-11-15T02:04:48;7.85;;;5.13;;
68479;SDS011;55469;48.934;12.050;2022-11-15T02:06:52;6.40;;;5.22;;
68479;SDS011;55469;48.934;12.050;2022-11-15T02:09:18;7.28;;;5.55;;
68479;SDS011;55469;48.934;12.050;2022-11-15T02:11:44;7.07;;;5.18;;
68479;SDS011;55469;48.934;12.050;2022-11-15T02:14:11;7.10;;;5.32;;
68479;SDS011;55469;48.934;12.050;2022-11-15T02:19:36;6.72;;;5.18;;
68479;SDS011;55469;48.934;12.050;2022-11-15T02:34:47;7.65;;;4.88;;
68479;SDS011;55469;48.934;12.050;2022-11-15T02:37:32;7.55;;;5.43;;
68479;SDS011;55469;48.934;12.050;2022-11-15T02:40:45;6.65;;;4.72;;
68479;SDS011;55469;48.934;12.050;2022-11-15T02:52:22;7.32;;;4.60;;
68479;SDS011;55469;48.934;12.050;2022-11-15T02:54:55;7.30;;;4.97;;
68479;SDS011;55469;48.934;12.050;2022-11-15T03:00:08;5.93;;;4.90;;
68479;SDS011;55469;48.934;12.050;2022-11-15T03:02:57;7.25;;;4.90;;
68479;SDS011;55469;48.934;12.050;2022-11-15T03:11:32;5.30;;;4.45;;
68479;SDS011;55469;48.934;12.050;2022-11-15T03:19:26;7.18;;;5.22;;
68479;SDS011;55469;48.934;12.050;2022-11-15T03:22:09;6.57;;;5.00;;
68479;SDS011;55469;48.934;12.050;2022-11-15T03:24:39;6.15;;;4.85;;
68479;SDS011;55469;48.934;12.050;2022-11-15T03:27:09;5.72;;;4.70;;
68479;SDS011;55469;48.934;12.050;2022-11-15T03:29:43;6.55;;;4.80;;
68479;SDS011;55469;48.934;12.050;2022-11-15T03:32:18;6.45;;;5.18;;
68479;SDS011;55469;48.934;12.050;2022-11-15T03:34:52;7.65;;;5.18;;
68479;SDS011;55469;48.934;12.050;2022-11-15T03:37:44;6.30;;;4.60;;
68479;SDS011;55469;48.934;12.050;2022-11-15T03:40:15;7.07;;;4.90;;
68479;SDS011;55469;48.934;12.050;2022-11-15T03:45:19;5.15;;;4.28;;
68479;SDS011;55469;48.934;12.050;2022-11-15T03:47:58;6.18;;;4.57;;
68479;SDS011;55469;48.934;12.050;2022-11-15T03:50:34;5.88;;;4.75;;
68479;SDS011;55469;48.934;12.050;2022-11-15T03:53:01;6.65;;;4.88;;
68479;SDS011;55469;48.934;12.050;2022-11-15T03:55:27;7.28;;;5.28;;
68479;SDS011;55469;48.934;12.050;2022-11-15T03:57:57;7.10;;;4.47;;
68479;SDS011;55469;48.934;12.050;2022-11-15T04:00:25;6.78;;;4.65;;
68479;SDS011;55469;48.934;12.050;2022-11-15T04:02:51;6.30;;;4.70;;
68479;SDS011;55469;48.934;12.050;2022-11-15T04:05:17;6.80;;;5.00;;
68479;SDS011;55469;48.934;12.050;2022-11-15T04:07:43;6.18;;;4.47;;
68479;SDS011;55469;48.934;12.050;2022-11-15T04:10:12;6.30;;;4.68;;
68479;SDS011;55469;48.934;12.050;2022-11-15T04:12:39;6.47;;;5.03;;
68479;SDS011;55469;48.934;12.050;2022-11-15T04:15:12;6.35;;;5.00;;
68479;SDS011;55469;48.934;12.050;2022-11-15T04:20:13;6.53;;;4.95;;
68479;SDS011;55469;48.934;12.050;2022-11-15T04:23:12;6.07;;;4.85;;
68479;SDS011;55469;48.934;12.050;2022-11-15T04:25:58;6.78;;;4.82;;
68479;SDS011;55469;48.934;12.050;2022-11-15T04:28:27;6.85;;;5.10;;
68479;SDS011;55469;48.934;12.050;2022-11-15T04:30:53;5.88;;;4.60;;
68479;SDS011;55469;48.934;12.050;2022-11-15T04:33:19;6.97;;;4.90;;
68479;SDS011;55469;48.934;12.050;2022-11-15T04:35:46;6.38;;;5.15;;
68479;SDS011;55469;48.934;12.050;2022-11-15T04:38:31;5.38;;;4.45;;
68479;SDS011;55469;48.934;12.050;2022-11-15T04:40:57;6.35;;;4.50;;
68479;SDS011;55469;48.934;12.050;2022-11-15T04:43:23;6.13;;;4.53;;
68479;SDS011;55469;48.934;12.050;2022-11-15T04:45:49;5.93;;;4.72;;
68479;SDS011;55469;48.934;12.050;2022-11-15T04:48:14;6.30;;;4.90;;
68479;SDS011;55469;48.934;12.050;2022-11-15T04:50:40;5.93;;;4.50;;
68479;SDS011;55469;48.934;12.050;2022-11-15T04:53:06;5.60;;;4.30;;
68479;SDS011;55469;48.934;12.050;2022-11-15T04:55:32;5.82;;;4.68;;
68479;SDS011;55469;48.934;12.050;2022-11-15T04:57:58;6.63;;;4.40;;
68479;SDS011;55469;48.934;12.050;2022-11-15T05:00:25;5.50;;;4.50;;
68479;SDS011;55469;48.934;12.050;2022-11-15T05:02:53;7.55;;;5.10;;
68479;SDS011;55469;48.934;12.050;2022-11-15T05:05:37;7.05;;;4.63;;
68479;SDS011;55469;48.934;12.050;2022-11-15T05:08:03;6.60;;;4.80;;
68479;SDS011;55469;48.934;12.050;2022-11-15T05:10:29;6.68;;;4.60;;
68479;SDS011;55469;48.934;12.050;2022-11-15T05:12:55;6.05;;;4.80;;
68479;SDS011;55469;48.934;12.050;2022-11-15T05:15:21;7.53;;;5.15;;
68479;SDS011;55469;48.934;12.050;2022-11-15T05:17:46;7.38;;;4.75;;
68479;SDS011;55469;48.934;12.050;2022-11-15T05:20:12;6.18;;;4.53;;
68479;SDS011;55469;48.934;12.050;2022-11-15T05:22:38;5.68;;;4.38;;
68479;SDS011;55469;48.934;12.050;2022-11-15T05:25:04;7.13;;;4.68;;
68479;SDS011;55469;48.934;12.050;2022-11-15T05:27:32;7.10;;;4.70;;
68479;SDS011;55469;48.934;12.050;2022-11-15T05:29:59;5.82;;;4.50;;
68479;SDS011;55469;48.934;12.050;2022-11-15T05:32:25;6.55;;;4.82;;
68479;SDS011;55469;48.934;12.050;2022-11-15T05:34:51;6.07;;;4.85;;
68479;SDS011;55469;48.934;12.050;2022-11-15T05:37:17;6.00;;;4.72;;
68479;SDS011;55469;48.934;12.050;2022-11-15T05:39:43;5.25;;;4.30;;
68479;SDS011;55469;48.934;12.050;2022-11-15T05:42:09;6.70;;;4.70;;
68479;SDS011;55469;48.934;12.050;2022-11-15T05:44:39;6.03;;;4.90;;
68479;SDS011;55469;48.934;12.050;2022-11-15T05:47:10;6.18;;;4.65;;
68479;SDS011;55469;48.934;12.050;2022-11-15T05:49:47;6.70;;;4.75;;
68479;SDS011;55469;48.934;12.050;2022-11-15T05:52:20;6.43;;;4.82;;
68479;SDS011;55469;48.934;12.050;2022-11-15T05:54:50;7.88;;;5.28;;
68479;SDS011;55469;48.934;12.050;2022-11-15T05:57:17;6.20;;;4.68;;
68479;SDS011;55469;48.934;12.050;2022-11-15T05:59:43;7.30;;;5.15;;
68479;SDS011;55469;48.934;12.050;2022-11-15T06:02:09;7.43;;;5.15;;
68479;SDS011;55469;48.934;12.050;2022-11-15T06:04:36;5.70;;;4.78;;
68479;SDS011;55469;48.934;12.050;2022-11-15T06:07:02;6.53;;;4.57;;
68479;SDS011;55469;48.934;12.050;2022-11-15T06:09:27;6.80;;;4.60;;
68479;SDS011;55469;48.934;12.050;2022-11-15T06:11:53;7.50;;;5.00;;
68479;SDS011;55469;48.934;12.050;2022-11-15T06:14:19;7.22;;;4.80;;
68479;SDS011;55469;48.934;12.050;2022-11-15T06:16:45;6.72;;;5.30;;
68479;SDS011;55469;48.934;12.050;2022-11-15T06:19:10;7.22;;;5.20;;
68479;SDS011;55469;48.934;12.050;2022-11-15T06:21:36;7.28;;;5.03;;
68479;SDS011;55469;48.934;12.050;2022-11-15T06:24:02;6.82;;;4.78;;
68479;SDS011;55469;48.934;12.050;2022-11-15T06:26:28;7.20;;;4.95;;
68479;SDS011;55469;48.934;12.050;2022-11-15T06:28:53;7.45;;;5.10;;
68479;SDS011;55469;48.934;12.050;2022-11-15T06:31:19;7.03;;;5.22;;
68479;SDS011;55469;48.934;12.050;2022-11-15T06:33:46;7.10;;;5.28;;
68479;SDS011;55469;48.934;12.050;2022-11-15T06:36:12;8.18;;;5.25;;
68479;SDS011;55469;48.934;12.050;2022-11-15T06:38:40;7.72;;;5.20;;
68479;SDS011;55469;48.934;12.050;2022-11-15T06:41:06;7.47;;;5.10;;
68479;SDS011;55469;48.934;12.050;2022-11-15T06:43:34;8.38;;;5.45;;
68479;SDS011;55469;48.934;12.050;2022-11-15T06:46:01;8.60;;;5.40;;
68479;SDS011;55469;48.934;12.050;2022-11-15T06:48:29;7.78;;;5.18;;
68479;SDS011;55469;48.934;12.050;2022-11-15T06:50:57;7.28;;;5.22;;
68479;SDS011;55469;48.934;12.050;2022-11-15T06:53:25;7.47;;;5.15;;
68479;SDS011;55469;48.934;12.050;2022-11-15T06:55:51;9.20;;;5.65;;
68479;SDS011;55469;48.934;12.050;2022-11-15T06:58:17;6.45;;;4.95;;
68479;SDS011;55469;48.934;12.050;2022-11-15T07:00:43;7.90;;;5.38;;
68479;SDS011;55469;48.934;12.050;2022-11-15T07:03:09;8.30;;;5.70;;
68479;SDS011;55469;48.934;12.050;2022-11-15T07:05:35;6.53;;;4.78;;
68479;SDS011;55469;48.934;12.050;2022-11-15T07:08:01;7.43;;;5.30;;
68479;SDS011;55469;48.934;12.050;2022-11-15T07:10:28;6.80;;;5.15;;
68479;SDS011;55469;48.934;12.050;2022-11-15T07:12:54;6.70;;;4.78;;
68479;SDS011;55469;48.934;12.050;2022-11-15T07:15:21;7.32;;;5.18;;
68479;SDS011;55469;48.934;12.050;2022-11-15T07:17:50;7.15;;;4.95;;
68479;SDS011;55469;48.934;12.050;2022-11-15T07:20:17;7.93;;;5.55;;
68479;SDS011;55469;48.934;12.050;2022-11-15T07:22:43;6.75;;;5.35;;
68479;SDS011;55469;48.934;12.050;2022-11-15T07:25:12;6.82;;;5.15;;
68479;SDS011;55469;48.934;12.050;2022-11-15T07:27:38;6.88;;;5.35;;
68479;SDS011;55469;48.934;12.050;2022-11-15T07:30:04;8.30;;;5.72;;
68479;SDS011;55469;48.934;12.050;2022-11-15T07:32:30;7.50;;;4.93;;
68479;SDS011;55469;48.934;12.050;2022-11-15T07:34:56;6.78;;;5.25;;
68479;SDS011;55469;48.934;12.050;2022-11-15T07:37:22;7.75;;;4.93;;
68479;SDS011;55469;48.934;12.050;2022-11-15T07:39:47;6.53;;;5.18;;
68479;SDS011;55469;48.934;12.050;2022-11-15T07:42:13;7.53;;;5.32;;
68479;SDS011;55469;48.934;12.050;2022-11-15T07:44:57;7.45;;;5.68;;
68479;SDS011;55469;48.934;12.050;2022-11-15T07:47:23;7.93;;;5.22;;
68479;SDS011;55469;48.934;12.050;2022-11-15T07:49:49;11.00;;;6.78;;
68479;SDS011;55469;48.934;12.050;2022-11-15T07:52:14;12.65;;;8.38;;
68479;SDS011;55469;48.934;12.050;2022-11-15T07:54:40;14.70;;;8.75;;
68479;SDS011;55469;48.934;12.050;2022-11-15T07:57:06;11.57;;;8.15;;
68479;SDS011;55469;48.934;12.050;2022-11-15T07:59:34;11.43;;;7.75;;
68479;SDS011;55469;48.934;12.050;2022-11-15T08:01:59;11.77;;;7.60;;
68479;SDS011;55469;48.934;12.050;2022-11-15T08:04:25;10.75;;;7.55;;
68479;SDS011;55469;48.934;12.050;2022-11-15T08:06:51;10.45;;;7.20;;
68479;SDS011;55469;48.934;12.050;2022-11-15T08:09:17;9.95;;;6.70;;
68479;SDS011;55469;48.934;12.050;2022-11-15T08:11:42;11.02;;;7.35;;
68479;SDS011;55469;48.934;12.050;2022-11-15T08:14:08;12.65;;;7.40;;
68479;SDS011;55469;48.934;12.050;2022-11-15T08:16:34;12.90;;;7.88;;
68479;SDS011;55469;48.934;12.050;2022-11-15T08:18:59;11.65;;;7.28;;
68479;SDS011;55469;48.934;12.050;2022-11-15T08:21:25;10.57;;;7.18;;
68479;SDS011;55469;48.934;12.050;2022-11-15T08:23:51;9.52;;;7.35;;
68479;SDS011;55469;48.934;12.050;2022-11-15T08:26:17;10.98;;;6.97;;
68479;SDS011;55469;48.934;12.050;2022-11-15T08:28:42;9.43;;;6.82;;
68479;SDS011;55469;48.934;12.050;2022-11-15T08:31:15;9.00;;;6.72;;
68479;SDS011;55469;48.934;12.050;2022-11-15T08:33:43;9.63;;;7.45;;
68479;SDS011;55469;48.934;12.050;2022-11-15T08:36:13;10.23;;;7.38;;
68479;SDS011;55469;48.934;12.050;2022-11-15T08:38:41;10.98;;;6.90;;
68479;SDS011;55469;48.934;12.050;2022-11-15T08:41:10;10.35;;;7.07;;
68479;SDS011;55469;48.934;12.050;2022-11-15T08:43:41;9.57;;;6.57;;
68479;SDS011;55469;48.934;12.050;2022-11-15T08:46:08;10.98;;;6.80;;
68479;SDS011;55469;48.934;12.050;2022-11-15T08:48:38;9.95;;;6.78;;
68479;SDS011;55469;48.934;12.050;2022-11-15T08:51:03;9.95;;;6.97;;
68479;SDS011;55469;48.934;12.050;2022-11-15T08:53:30;10.15;;;6.78;;
68479;SDS011;55469;48.934;12.050;2022-11-15T08:55:56;9.60;;;6.55;;
68479;SDS011;55469;48.934;12.050;2022-11-15T08:58:21;9.70;;;6.55;;
68479;SDS011;55469;48.934;12.050;2022-11-15T09:00:47;8.85;;;6.30;;
68479;SDS011;55469;48.934;12.050;2022-11-15T09:03:13;7.97;;;5.90;;
68479;SDS011;55469;48.934;12.050;2022-11-15T09:05:40;8.88;;;6.35;;
68479;SDS011;55469;48.934;12.050;2022-11-15T09:08:06;7.43;;;6.00;;
68479;SDS011;55469;48.934;12.050;2022-11-15T09:10:31;8.23;;;6.00;;
68479;SDS011;55469;48.934;12.050;2022-11-15T09:12:57;7.40;;;5.80;;
68479;SDS011;55469;48.934;12.050;2022-11-15T09:15:23;8.05;;;5.60;;
68479;SDS011;55469;48.934;12.050;2022-11-15T09:17:49;8.60;;;6.18;;
68479;SDS011;55469;48.934;12.050;2022-11-15T09:20:14;9.68;;;5.93;;
68479;SDS011;55469;48.934;12.050;2022-11-15T09:22:40;8.98;;;6.50;;
68479;SDS011;55469;48.934;12.050;2022-11-15T09:25:06;7.47;;;5.53;;
68479;SDS011;55469;48.934;12.050;2022-11-15T09:27:33;9.60;;;6.63;;
68479;SDS011;55469;48.934;12.050;2022-11-15T09:29:59;9.00;;;6.50;;
68479;SDS011;55469;48.934;12.050;2022-11-15T09:32:27;8.10;;;6.22;;
68479;SDS011;55469;48.934;12.050;2022-11-15T09:34:55;7.82;;;5.82;;
68479;SDS011;55469;48.934;12.050;2022-11-15T09:37:20;8.23;;;5.70;;
68479;SDS011;55469;48.934;12.050;2022-11-15T09:39:46;7.53;;;5.47;;
68479;SDS011;55469;48.934;12.050;2022-11-15T09:42:20;9.18;;;6.05;;
68479;SDS011;55469;48.934;12.050;2022-11-15T09:48:02;7.10;;;5.50;;
68479;SDS011;55469;48.934;12.050;2022-11-15T09:50:55;7.85;;;5.80;;
68479;SDS011;55469;48.934;12.050;2022-11-15T09:53:28;8.50;;;5.60;;
68479;SDS011;55469;48.934;12.050;2022-11-15T09:56:03;7.25;;;5.85;;
68479;SDS011;55469;48.934;12.050;2022-11-15T09:58:52;7.53;;;5.03;;
68479;SDS011;55469;48.934;12.050;2022-11-15T10:02:15;7.47;;;5.35;;
68479;SDS011;55469;48.934;12.050;2022-11-15T10:05:01;6.70;;;5.70;;
68479;SDS011;55469;48.934;12.050;2022-11-15T10:10:35;6.47;;;5.53;;
68479;SDS011;55469;48.934;12.050;2022-11-15T10:13:13;8.00;;;5.57;;
68479;SDS011;55469;48.934;12.050;2022-11-15T10:15:53;7.75;;;5.60;;
68479;SDS011;55469;48.934;12.050;2022-11-15T10:24:28;8.18;;;5.75;;
68479;SDS011;55469;48.934;12.050;2022-11-15T10:27:03;7.38;;;5.45;;
68479;SDS011;55469;48.934;12.050;2022-11-15T10:29:41;8.18;;;5.32;;
68479;SDS011;55469;48.934;12.050;2022-11-15T10:32:13;7.78;;;5.13;;
68479;SDS011;55469;48.934;12.050;2022-11-15T10:34:47;6.82;;;5.10;;
68479;SDS011;55469;48.934;12.050;2022-11-15T10:37:14;7.05;;;5.18;;
68479;SDS011;55469;48.934;12.050;2022-11-15T10:40:04;7.13;;;5.30;;
68479;SDS011;55469;48.934;12.050;2022-11-15T10:45:22;7.82;;;5.15;;
68479;SDS011;55469;48.934;12.050;2022-11-15T10:47:57;7.45;;;5.30;;
68479;SDS011;55469;48.934;12.050;2022-11-15T10:50:46;7.22;;;5.22;;
68479;SDS011;55469;48.934;12.050;2022-11-15T10:53:21;8.40;;;5.40;;
68479;SDS011;55469;48.934;12.050;2022-11-15T10:55:53;6.90;;;5.55;;
68479;SDS011;55469;48.934;12.050;2022-11-15T10:58:29;7.47;;;5.28;;
68479;SDS011;55469;48.934;12.050;2022-11-15T11:01:09;8.68;;;5.63;;
68479;SDS011;55469;48.934;12.050;2022-11-15T11:03:36;6.95;;;5.18;;
68479;SDS011;55469;48.934;12.050;2022-11-15T11:06:06;7.43;;;5.25;;
68479;SDS011;55469;48.934;12.050;2022-11-15T11:08:36;7.00;;;5.00;;
68479;SDS011;55469;48.934;12.050;2022-11-15T11:11:02;7.47;;;5.32;;
68479;SDS011;55469;48.934;12.050;2022-11-15T11:13:30;5.93;;;4.80;;
68479;SDS011;55469;48.934;12.050;2022-11-15T11:18:48;8.05;;;4.80;;
68479;SDS011;55469;48.934;12.050;2022-11-15T11:32:56;7.57;;;5.13;;
68479;SDS011;55469;48.934;12.050;2022-11-15T11:35:52;6.97;;;5.15;;
68479;SDS011;55469;48.934;12.050;2022-11-15T11:47:00;8.20;;;5.10;;
68479;SDS011;55469;48.934;12.050;2022-11-15T11:49:51;8.55;;;5.07;;
68479;SDS011;55469;48.934;12.050;2022-11-15T11:52:25;7.07;;;4.70;;
68479;SDS011;55469;48.934;12.050;2022-11-15T11:55:22;7.25;;;5.07;;
68479;SDS011;55469;48.934;12.050;2022-11-15T12:00:33;7.57;;;4.93;;
68479;SDS011;55469;48.934;12.050;2022-11-15T12:03:09;9.80;;;5.60;;
68479;SDS011;55469;48.934;12.050;2022-11-15T12:05:57;6.72;;;4.95;;
68479;SDS011;55469;48.934;12.050;2022-11-15T12:08:35;6.85;;;4.85;;
68479;SDS011;55469;48.934;12.050;2022-11-15T12:11:22;6.57;;;4.53;;
68479;SDS011;55469;48.934;12.050;2022-11-15T12:14:01;7.10;;;5.18;;
68479;SDS011;55469;48.934;12.050;2022-11-15T12:16:33;7.00;;;5.00;;
68479;SDS011;55469;48.934;12.050;2022-11-15T12:19:00;8.23;;;5.10;;
68479;SDS011;55469;48.934;12.050;2022-11-15T12:21:35;8.38;;;5.32;;
68479;SDS011;55469;48.934;12.050;2022-11-15T12:24:21;7.40;;;5.13;;
68479;SDS011;55469;48.934;12.050;2022-11-15T12:27:05;7.10;;;4.68;;
68479;SDS011;55469;48.934;12.050;2022-11-15T12:30:00;6.45;;;4.65;;
68479;SDS011;55469;48.934;12.050;2022-11-15T12:32:35;6.45;;;4.95;;
68479;SDS011;55469;48.934;12.050;2022-11-15T12:35:04;6.55;;;4.82;;
68479;SDS011;55469;48.934;12.050;2022-11-15T12:37:47;7.80;;;5.10;;
68479;SDS011;55469;48.934;12.050;2022-11-15T13:06:45;7.50;;;4.80;;
68479;SDS011;55469;48.934;12.050;2022-11-15T13:12:25;7.55;;;5.05;;
68479;SDS011;55469;48.934;12.050;2022-11-15T13:14:59;5.80;;;4.30;;
68479;SDS011;55469;48.934;12.050;2022-11-15T13:22:42;7.90;;;5.38;;
68479;SDS011;55469;48.934;12.050;2022-11-15T13:25:27;6.93;;;4.63;;
68479;SDS011;55469;48.934;12.050;2022-11-15T13:33:20;7.22;;;5.03;;
68479;SDS011;55469;48.934;12.050;2022-11-15T13:35:59;7.68;;;4.80;;
68479;SDS011;55469;48.934;12.050;2022-11-15T13:38:29;7.80;;;4.72;;
68479;SDS011;55469;48.934;12.050;2022-11-15T13:44:01;6.85;;;4.90;;
68479;SDS011;55469;48.934;12.050;2022-11-15T13:46:29;8.20;;;5.30;;
68479;SDS011;55469;48.934;12.050;2022-11-15T13:48:59;7.82;;;4.85;;
68479;SDS011;55469;48.934;12.050;2022-11-15T13:51:34;8.38;;;5.32;;
68479;SDS011;55469;48.934;12.050;2022-11-15T13:54:20;7.85;;;4.90;;
68479;SDS011;55469;48.934;12.050;2022-11-15T13:57:08;6.55;;;4.57;;
68479;SDS011;55469;48.934;12.050;2022-11-15T13:59:45;7.68;;;5.10;;
68479;SDS011;55469;48.934;12.050;2022-11-15T14:02:50;6.55;;;4.60;;
68479;SDS011;55469;48.934;12.050;2022-11-15T14:05:19;8.73;;;5.32;;
68479;SDS011;55469;48.934;12.050;2022-11-15T14:07:52;6.85;;;4.45;;
68479;SDS011;55469;48.934;12.050;2022-11-15T14:10:28;6.97;;;4.40;;
68479;SDS011;55469;48.934;12.050;2022-11-15T14:13:02;6.55;;;4.80;;
68479;SDS011;55469;48.934;12.050;2022-11-15T14:15:38;6.63;;;4.75;;
68479;SDS011;55469;48.934;12.050;2022-11-15T14:18:05;6.88;;;4.68;;
68479;SDS011;55469;48.934;12.050;2022-11-15T14:20:32;7.70;;;4.85;;
68479;SDS011;55469;48.934;12.050;2022-11-15T14:25:53;8.02;;;4.85;;
68479;SDS011;55469;48.934;12.050;2022-11-15T14:30:48;6.80;;;4.60;;
68479;SDS011;55469;48.934;12.050;2022-11-15T14:33:20;6.68;;;4.50;;
68479;SDS011;55469;48.934;12.050;2022-11-15T14:35:58;6.15;;;4.18;;
68479;SDS011;55469;48.934;12.050;2022-11-15T14:38:36;7.28;;;4.70;;
68479;SDS011;55469;48.934;12.050;2022-11-15T14:41:02;6.75;;;4.70;;
68479;SDS011;55469;48.934;12.050;2022-11-15T14:43:28;6.13;;;4.30;;
68479;SDS011;55469;48.934;12.050;2022-11-15T14:45:54;6.28;;;4.35;;
68479;SDS011;55469;48.934;12.050;2022-11-15T14:48:20;6.90;;;4.25;;
68479;SDS011;55469;48.934;12.050;2022-11-15T14:50:47;6.90;;;4.55;;
68479;SDS011;55469;48.934;12.050;2022-11-15T14:53:13;5.72;;;4.45;;
68479;SDS011;55469;48.934;12.050;2022-11-15T14:55:42;6.40;;;4.15;;
68479;SDS011;55469;48.934;12.050;2022-11-15T14:58:08;6.47;;;4.20;;
68479;SDS011;55469;48.934;12.050;2022-11-15T15:00:35;7.68;;;4.88;;
68479;SDS011;55469;48.934;12.050;2022-11-15T15:03:03;5.45;;;4.32;;
68479;SDS011;55469;48.934;12.050;2022-11-15T15:05:34;6.50;;;4.38;;
68479;SDS011;55469;48.934;12.050;2022-11-15T15:08:02;6.65;;;4.40;;
68479;SDS011;55469;48.934;12.050;2022-11-15T15:10:32;7.93;;;4.30;;
68479;SDS011;55469;48.934;12.050;2022-11-15T15:13:02;7.22;;;4.65;;
68479;SDS011;55469;48.934;12.050;2022-11-15T15:15:32;8.00;;;4.72;;
68479;SDS011;55469;48.934;12.050;2022-11-15T15:18:01;6.97;;;4.68;;
68479;SDS011;55469;48.934;12.050;2022-11-15T15:20:29;7.30;;;4.80;;
68479;SDS011;55469;48.934;12.050;2022-11-15T15:22:57;7.50;;;4.60;;
68479;SDS011;55469;48.934;12.050;2022-11-15T15:25:27;6.80;;;4.45;;
68479;SDS011;55469;48.934;12.050;2022-11-15T15:27:59;7.35;;;4.68;;
68479;SDS011;55469;48.934;12.050;2022-11-15T15:30:27;6.43;;;4.22;;
68479;SDS011;55469;48.934;12.050;2022-11-15T15:32:54;6.88;;;4.47;;
68479;SDS011;55469;48.934;12.050;2022-11-15T15:35:20;7.03;;;4.38;;
68479;SDS011;55469;48.934;12.050;2022-11-15T15:37:47;6.22;;;4.50;;
68479;SDS011;55469;48.934;12.050;2022-11-15T15:40:21;6.20;;;4.00;;
68479;SDS011;55469;48.934;12.050;2022-11-15T15:42:49;8.07;;;4.65;;
68479;SDS011;55469;48.934;12.050;2022-11-15T15:45:15;6.57;;;4.35;;
68479;SDS011;55469;48.934;12.050;2022-11-15T15:47:42;6.90;;;4.20;;
68479;SDS011;55469;48.934;12.050;2022-11-15T15:50:16;7.35;;;4.47;;
68479;SDS011;55469;48.934;12.050;2022-11-15T15:52:52;6.05;;;4.10;;
68479;SDS011;55469;48.934;12.050;2022-11-15T15:55:23;6.88;;;4.25;;
68479;SDS011;55469;48.934;12.050;2022-11-15T15:57:49;6.72;;;4.18;;
68479;SDS011;55469;48.934;12.050;2022-11-15T16:00:16;6.68;;;4.60;;
68479;SDS011;55469;48.934;12.050;2022-11-15T16:02:43;6.90;;;4.63;;
68479;SDS011;55469;48.934;12.050;2022-11-15T16:05:09;6.85;;;4.35;;
68479;SDS011;55469;48.934;12.050;2022-11-15T16:07:36;7.10;;;4.60;;
68479;SDS011;55469;48.934;12.050;2022-11-15T16:10:03;6.95;;;4.32;;
68479;SDS011;55469;48.934;12.050;2022-11-15T16:12:50;6.75;;;4.72;;
68479;SDS011;55469;48.934;12.050;2022-11-15T16:15:17;5.57;;;4.07;;
68479;SDS011;55469;48.934;12.050;2022-11-15T16:17:53;6.00;;;4.38;;
68479;SDS011;55469;48.934;12.050;2022-11-15T16:20:22;7.68;;;4.50;;
68479;SDS011;55469;48.934;12.050;2022-11-15T16:23:13;7.00;;;4.35;;
68479;SDS011;55469;48.934;12.050;2022-11-15T16:25:41;5.82;;;4.25;;
68479;SDS011;55469;48.934;12.050;2022-11-15T16:31:01;6.57;;;4.15;;
68479;SDS011;55469;48.934;12.050;2022-11-15T16:33:33;6.57;;;4.07;;
68479;SDS011;55469;48.934;12.050;2022-11-15T16:35:59;6.28;;;4.10;;
68479;SDS011;55469;48.934;12.050;2022-11-15T16:38:25;6.82;;;4.32;;
68479;SDS011;55469;48.934;12.050;2022-11-15T16:40:50;6.43;;;4.25;;
68479;SDS011;55469;48.934;12.050;2022-11-15T16:43:16;5.63;;;4.28;;
68479;SDS011;55469;48.934;12.050;2022-11-15T16:45:42;6.55;;;4.10;;
68479;SDS011;55469;48.934;12.050;2022-11-15T16:48:19;6.53;;;4.15;;
68479;SDS011;55469;48.934;12.050;2022-11-15T16:50:49;6.95;;;4.40;;
68479;SDS011;55469;48.934;12.050;2022-11-15T16:53:18;6.95;;;4.15;;
68479;SDS011;55469;48.934;12.050;2022-11-15T16:55:44;7.53;;;4.38;;
68479;SDS011;55469;48.934;12.050;2022-11-15T16:58:10;6.68;;;4.30;;
68479;SDS011;55469;48.934;12.050;2022-11-15T17:00:35;5.70;;;4.30;;
68479;SDS011;55469;48.934;12.050;2022-11-15T17:03:01;7.35;;;4.38;;
68479;SDS011;55469;48.934;12.050;2022-11-15T17:05:27;6.63;;;4.00;;
68479;SDS011;55469;48.934;12.050;2022-11-15T17:07:53;5.93;;;4.18;;
68479;SDS011;55469;48.934;12.050;2022-11-15T17:10:20;5.80;;;4.07;;